Time;durP1;ratioP1;P1;durP2;ratioP2;P2;SDS_P1;SDS_P2;PMS_P1;PMS_P2;Temp;Humidity;BMP_temperature;BMP_pressure;BME280_temperature;BME280_humidity;BME280_pressure;Samples;Min_cycle;Max_cycle;Signal;HPM_P1;HPM_P2
2021/06/10 00:02:15;;;;;;;10.57;9.67;;;;;;;19.28;83.99;96815.09;4974546;28;20509;-70
2021/06/10 00:04:40;;;;;;;12.10;11.00;;;;;;;19.28;83.94;96809.75;4974525;28;20289;-70
2021/06/10 00:07:06;;;;;;;10.90;10.07;;;;;;;19.25;84.18;96810.31;4974460;28;20265;-66
2021/06/10 00:09:31;;;;;;;11.57;10.67;;;;;;;19.23;84.16;96815.91;4974420;28;20530;-70
2021/06/10 00:11:57;;;;;;;11.20;10.30;;;;;;;19.22;83.95;96810.84;4974408;28;20174;-67
2021/06/10 00:14:23;;;;;;;11.57;10.47;;;;;;;19.23;83.96;96809.75;4980649;28;20201;-66
2021/06/10 00:16:48;;;;;;;10.07;9.30;;;;;;;19.19;84.23;96811.38;4993922;28;20201;-69
2021/06/10 00:19:13;;;;;;;9.87;9.03;;;;;;;19.13;84.55;96801.81;4993968;28;20213;-70
2021/06/10 00:21:41;;;;;;;10.90;9.90;;;;;;;19.06;84.78;96807.38;4976174;28;20184;-70
2021/06/10 00:24:07;;;;;;;13.67;11.00;;;;;;;19.04;84.43;96811.41;4993774;28;20667;-67
2021/06/10 00:26:33;;;;;;;11.53;10.60;;;;;;;19.03;85.17;96809.78;4993533;28;20420;-67
2021/06/10 00:28:58;;;;;;;11.47;10.47;;;;;;;18.95;84.81;96811.13;4988065;28;20421;-67
2021/06/10 00:31:24;;;;;;;10.80;9.83;;;;;;;18.94;84.60;96808.72;4974348;28;20542;-71
2021/06/10 00:33:49;;;;;;;11.67;10.73;;;;;;;18.83;85.25;96801.81;4974109;28;20194;-69
2021/06/10 00:36:14;;;;;;;10.43;9.60;;;;;;;18.86;85.21;96801.28;4974296;28;20245;-70
2021/06/10 00:38:40;;;;;;;11.50;10.60;;;;;;;18.82;85.14;96809.00;4986783;28;20235;-69
2021/06/10 00:41:05;;;;;;;10.70;9.90;;;;;;;18.84;85.16;96804.19;4993757;28;20180;-69
2021/06/10 00:43:31;;;;;;;10.40;9.43;;;;;;;18.84;84.56;96798.09;4992561;28;20280;-67
2021/06/10 00:45:56;;;;;;;10.90;10.00;;;;;;;18.79;84.66;96819.41;4978871;28;20645;-66
2021/06/10 00:48:22;;;;;;;10.57;9.67;;;;;;;18.78;84.95;96807.94;4986927;28;20205;-70
2021/06/10 00:50:51;;;;;;;11.70;10.70;;;;;;;18.81;85.03;96809.25;4990476;28;20544;-67
2021/06/10 00:53:22;;;;;;;12.60;11.30;;;;;;;18.78;84.88;96807.13;4991852;28;20189;-70
2021/06/10 00:55:56;;;;;;;11.10;10.20;;;;;;;18.81;84.71;96811.91;4986948;28;20571;-66
2021/06/10 00:58:23;;;;;;;10.83;9.93;;;;;;;18.78;84.71;96809.78;4995561;28;20420;-67
2021/06/10 01:00:49;;;;;;;11.57;10.60;;;;;;;18.77;84.67;96816.19;4995546;28;20424;-67
2021/06/10 01:03:15;;;;;;;10.40;9.50;;;;;;;18.68;84.97;96820.44;4980037;28;20449;-70
2021/06/10 01:05:43;;;;;;;11.20;10.27;;;;;;;18.68;85.24;96817.78;4977475;28;20472;-66
2021/06/10 01:08:11;;;;;;;10.67;9.57;;;;;;;18.69;85.41;96824.69;4960173;28;20807;-70
2021/06/10 01:11:07;;;;;;;11.67;10.67;;;;;;;18.68;85.16;96821.22;4996089;28;20899;-70
2021/06/10 01:13:45;;;;;;;10.90;10.00;;;;;;;18.68;85.30;96815.91;4996629;28;20779;-71
2021/06/10 01:16:15;;;;;;;10.53;9.60;;;;;;;18.66;85.52;96823.34;4996933;28;20855;-70
2021/06/10 01:18:41;;;;;;;10.17;9.30;;;;;;;18.62;85.86;96814.31;4995218;28;20496;-70
2021/06/10 01:21:07;;;;;;;11.90;10.90;;;;;;;18.65;85.49;96813.78;4997091;28;20435;-66
2021/06/10 01:24:04;;;;;;;11.07;10.17;;;;;;;18.63;85.60;96815.09;4978964;28;20437;-66
2021/06/10 01:26:42;;;;;;;11.60;10.60;;;;;;;18.65;85.32;96811.13;4996688;28;20173;-67
2021/06/10 01:29:12;;;;;;;11.77;10.20;;;;;;;18.67;84.78;96816.16;4979308;28;20958;-69
2021/06/10 01:31:39;;;;;;;9.70;9.00;;;;;;;18.61;84.92;96812.72;4983550;28;20421;-67
2021/06/10 01:34:06;;;;;;;11.43;10.53;;;;;;;18.58;85.09;96815.09;4977165;28;20437;-70
2021/06/10 01:36:34;;;;;;;10.03;9.33;;;;;;;18.57;85.19;96813.50;4977125;28;20480;-66
2021/06/10 01:39:06;;;;;;;11.70;10.70;;;;;;;18.57;84.95;96813.50;4992415;28;20456;-67
2021/06/10 01:41:33;;;;;;;10.40;9.60;;;;;;;18.58;84.72;96802.59;4996507;28;20801;-70
2021/06/10 01:44:01;;;;;;;11.67;10.50;;;;;;;18.54;84.89;96812.16;4996545;28;20425;-70
2021/06/10 01:46:28;;;;;;;10.90;10.00;;;;;;;18.56;85.00;96803.91;4990345;28;20413;-66
2021/06/10 01:48:55;;;;;;;10.90;10.00;;;;;;;18.48;85.48;96808.69;4987791;28;20421;-70
2021/06/10 01:51:25;;;;;;;11.37;10.23;;;;;;;18.48;85.42;96799.13;4976688;28;20421;-67
2021/06/10 01:53:51;;;;;;;12.07;11.07;;;;;;;18.48;85.54;96799.13;4976684;28;20424;-67
2021/06/10 01:56:20;;;;;;;11.50;10.60;;;;;;;18.50;85.54;96797.00;4976832;28;20464;-67
2021/06/10 01:58:46;;;;;;;11.10;10.30;;;;;;;18.48;85.44;96789.25;4976826;28;20453;-70
2021/06/10 02:01:14;;;;;;;12.00;10.90;;;;;;;18.53;85.41;96793.81;4985336;28;20494;-70
2021/06/10 02:03:41;;;;;;;11.77;10.70;;;;;;;18.51;85.63;96788.75;4992992;28;20444;-66
2021/06/10 02:06:08;;;;;;;11.80;10.80;;;;;;;18.50;86.09;96784.47;4976533;28;20461;-69
2021/06/10 02:08:34;;;;;;;11.20;10.30;;;;;;;18.54;85.76;96784.75;4976704;28;20512;-70
2021/06/10 02:11:00;;;;;;;11.53;10.53;;;;;;;18.57;85.59;96784.22;4976128;28;20414;-70
2021/06/10 02:13:30;;;;;;;11.43;10.43;;;;;;;18.52;85.38;96785.00;4976068;28;20767;-70
2021/06/10 02:16:01;;;;;;;11.20;10.30;;;;;;;18.42;85.83;96791.13;4976581;28;20202;-66
2021/06/10 02:18:27;;;;;;;10.97;10.10;;;;;;;18.44;85.60;96791.66;4978501;28;20425;-67
2021/06/10 02:20:52;;;;;;;10.27;9.53;;;;;;;18.45;85.62;96787.94;4995096;28;20424;-66
2021/06/10 02:23:18;;;;;;;11.33;10.33;;;;;;;18.46;85.36;96791.41;4995341;28;20197;-67
2021/06/10 02:25:43;;;;;;;11.83;10.83;;;;;;;18.47;85.43;96793.00;4995805;28;20172;-66
2021/06/10 02:28:09;;;;;;;11.57;10.67;;;;;;;18.44;85.55;96789.00;4995639;28;20663;-66
2021/06/10 02:30:35;;;;;;;12.23;11.10;;;;;;;18.42;85.61;96788.47;4991667;28;20182;-69
2021/06/10 02:33:01;;;;;;;12.40;11.40;;;;;;;18.44;85.75;96790.88;4975689;28;20434;-67
2021/06/10 02:35:27;;;;;;;10.77;9.90;;;;;;;18.42;85.71;96785.78;4976129;28;20512;-70
2021/06/10 02:37:55;;;;;;;12.77;11.47;;;;;;;18.38;85.70;96787.38;4982201;28;20523;-69
2021/06/10 02:40:26;;;;;;;12.07;10.93;;;;;;;18.38;85.23;96784.72;4995605;28;20252;-67
2021/06/10 02:42:54;;;;;;;12.70;11.60;;;;;;;18.39;85.63;96785.50;4995176;28;20415;-69
2021/06/10 02:45:20;;;;;;;12.83;11.83;;;;;;;18.36;85.71;96789.50;4994797;28;20456;-70
2021/06/10 02:47:46;;;;;;;12.10;11.00;;;;;;;18.34;85.96;96786.31;4995234;28;20457;-67
2021/06/10 02:50:16;;;;;;;12.90;11.70;;;;;;;18.35;85.71;96785.22;4995431;28;20524;-69
2021/06/10 02:52:43;;;;;;;12.27;11.17;;;;;;;18.33;85.87;96792.66;4994805;28;20431;-69
2021/06/10 02:55:10;;;;;;;11.50;10.43;;;;;;;18.29;86.07;96786.31;4995194;28;20401;-70
2021/06/10 02:57:36;;;;;;;10.70;9.90;;;;;;;18.25;86.12;96787.06;4995117;28;20857;-69
2021/06/10 03:00:05;;;;;;;11.47;10.40;;;;;;;18.25;85.88;96774.56;4991920;28;20779;-68
2021/06/10 03:02:34;;;;;;;10.90;9.93;;;;;;;18.20;86.35;96777.22;4976137;28;20783;-69
2021/06/10 03:05:00;;;;;;;13.20;12.10;;;;;;;18.19;86.49;96772.97;4975293;28;20405;-67
2021/06/10 03:07:25;;;;;;;12.60;11.40;;;;;;;18.21;86.74;96778.81;4975575;28;20751;-67
2021/06/10 03:09:52;;;;;;;12.47;11.40;;;;;;;18.18;86.80;96779.34;4975563;28;20414;-70
2021/06/10 03:12:18;;;;;;;12.60;11.30;;;;;;;18.19;87.00;96770.31;4975146;28;20166;-70
2021/06/10 03:14:45;;;;;;;12.87;11.70;;;;;;;18.20;87.12;96771.09;4977609;28;20445;-67
2021/06/10 03:17:13;;;;;;;13.83;12.63;;;;;;;18.22;87.06;96771.66;4980134;28;20457;-67
2021/06/10 03:19:40;;;;;;;11.30;10.50;;;;;;;18.18;87.08;96773.22;4989672;28;20439;-69
2021/06/10 03:22:06;;;;;;;10.97;10.17;;;;;;;18.25;86.27;96773.78;4993495;28;20409;-66
2021/06/10 03:24:32;;;;;;;11.70;10.70;;;;;;;18.22;86.21;96776.97;4994621;28;20436;-66
2021/06/10 03:26:59;;;;;;;12.30;11.30;;;;;;;18.18;86.06;96770.56;4994830;28;20552;-69
2021/06/10 03:29:24;;;;;;;12.00;10.90;;;;;;;18.16;86.09;96773.50;4994630;28;20401;-67
2021/06/10 03:31:50;;;;;;;11.57;10.57;;;;;;;18.11;86.02;96767.38;4976848;28;20492;-70
2021/06/10 03:34:18;;;;;;;10.70;9.70;;;;;;;18.11;85.68;96772.69;4974999;28;20190;-69
2021/06/10 03:36:43;;;;;;;11.87;10.67;;;;;;;18.13;85.67;96773.22;4975114;28;20206;-66
2021/06/10 03:39:09;;;;;;;10.87;10.00;;;;;;;18.05;85.89;96769.22;4991388;28;20817;-69
2021/06/10 03:41:35;;;;;;;11.60;10.63;;;;;;;18.05;86.18;96774.53;4994163;28;20169;-67
2021/06/10 03:44:02;;;;;;;10.80;9.90;;;;;;;18.04;85.96;96769.47;4994302;28;20196;-70
2021/06/10 03:46:28;;;;;;;11.13;10.13;;;;;;;17.95;86.17;96777.19;4993554;28;20420;-69
2021/06/10 03:48:54;;;;;;;12.47;11.30;;;;;;;17.96;86.10;96777.94;4994451;28;20405;-66
2021/06/10 03:51:20;;;;;;;11.23;10.13;;;;;;;18.02;86.00;96776.91;4994276;28;20888;-69
2021/06/10 03:53:47;;;;;;;12.00;11.00;;;;;;;18.06;85.32;96778.78;4993759;28;20193;-69
2021/06/10 03:56:14;;;;;;;11.17;10.23;;;;;;;18.07;84.96;96777.72;4994260;28;20476;-69
2021/06/10 03:58:39;;;;;;;11.90;10.90;;;;;;;18.03;84.96;96779.31;4994021;28;20411;-69
2021/06/10 04:01:05;;;;;;;11.17;10.27;;;;;;;17.93;84.93;96771.31;4979050;28;20417;-66
2021/06/10 04:03:30;;;;;;;11.03;10.17;;;;;;;17.86;85.63;96776.09;4974260;28;20258;-69
2021/06/10 04:05:57;;;;;;;12.50;11.47;;;;;;;17.84;85.37;96775.53;4974511;28;20232;-69
2021/06/10 04:08:22;;;;;;;10.93;10.03;;;;;;;17.71;85.61;96772.56;4974693;28;20708;-66
2021/06/10 04:10:48;;;;;;;10.63;9.73;;;;;;;17.74;85.88;96777.34;4974742;28;20500;-69
2021/06/10 04:13:13;;;;;;;10.87;9.97;;;;;;;17.66;86.06;96770.69;4956755;28;20202;-69
2021/06/10 04:15:39;;;;;;;11.90;10.77;;;;;;;17.72;86.43;96777.59;4987447;28;20196;-69
2021/06/10 04:18:04;;;;;;;10.87;10.07;;;;;;;17.74;86.20;96775.50;4993991;28;20690;-67
2021/06/10 04:20:30;;;;;;;11.70;10.60;;;;;;;17.76;86.60;96777.88;4993993;28;20173;-67
2021/06/10 04:22:55;;;;;;;11.03;10.03;;;;;;;17.82;86.60;96779.50;4993414;28;20189;-70
2021/06/10 04:25:21;;;;;;;11.30;10.40;;;;;;;17.85;86.54;96785.09;4994023;28;20176;-69
2021/06/10 04:27:46;;;;;;;11.00;10.17;;;;;;;17.83;87.15;96776.59;4993959;28;20204;-69
2021/06/10 04:30:13;;;;;;;12.37;11.20;;;;;;;17.88;87.52;96775.81;4982004;28;20236;-69
2021/06/10 04:32:39;;;;;;;11.80;10.80;;;;;;;17.96;87.22;96775.28;4986249;28;20264;-70
2021/06/10 04:35:06;;;;;;;13.40;12.30;;;;;;;18.03;87.38;96781.16;4978521;28;20406;-66
2021/06/10 04:37:32;;;;;;;12.40;11.40;;;;;;;18.06;87.95;96780.66;4981739;28;20472;-70
2021/06/10 04:39:57;;;;;;;11.67;10.67;;;;;;;18.09;88.27;96777.47;4997635;28;20462;-69
2021/06/10 04:42:23;;;;;;;13.00;11.80;;;;;;;18.16;88.53;96781.47;4997167;28;20603;-69
2021/06/10 04:44:49;;;;;;;11.97;10.80;;;;;;;18.22;88.37;96782.28;4997204;28;20200;-66
2021/06/10 04:47:14;;;;;;;11.70;10.70;;;;;;;18.26;88.32;96788.69;4979304;28;20200;-66
2021/06/10 04:49:40;;;;;;;11.60;10.67;;;;;;;18.31;88.53;96786.84;4980081;28;20192;-69
2021/06/10 04:52:06;;;;;;;12.07;10.83;;;;;;;18.34;88.66;96788.16;4997214;28;20205;-70
2021/06/10 04:54:33;;;;;;;12.80;11.50;;;;;;;18.44;88.54;96782.91;4997294;28;20281;-70
2021/06/10 04:56:59;;;;;;;12.17;11.07;;;;;;;18.51;88.21;96790.59;4997125;28;20447;-70
2021/06/10 04:59:24;;;;;;;11.90;10.90;;;;;;;18.57;88.04;96789.56;4991950;28;20428;-69
2021/06/10 05:01:50;;;;;;;11.83;10.73;;;;;;;18.66;88.17;96783.41;4977389;28;20181;-66
2021/06/10 05:04:15;;;;;;;14.10;12.80;;;;;;;18.63;89.06;96783.16;4977551;28;20671;-66
2021/06/10 05:06:41;;;;;;;13.30;12.20;;;;;;;18.58;90.23;96783.97;4977717;28;20265;-69
2021/06/10 05:09:06;;;;;;;13.30;12.20;;;;;;;18.66;90.41;96778.09;4977678;28;20517;-70
2021/06/10 05:11:32;;;;;;;13.23;12.10;;;;;;;18.82;89.80;96776.25;4959854;28;20178;-70
2021/06/10 05:13:57;;;;;;;12.40;11.40;;;;;;;18.84;90.17;96779.44;4979792;28;20201;-67
2021/06/10 05:16:27;;;;;;;12.30;11.20;;;;;;;18.82;90.80;96785.03;4997005;28;20256;-69
2021/06/10 05:18:52;;;;;;;11.30;10.40;;;;;;;18.81;90.72;96788.75;4996804;28;20177;-68
2021/06/10 05:21:18;;;;;;;12.47;11.47;;;;;;;18.88;90.76;96783.97;4996709;28;20511;-66
2021/06/10 05:23:43;;;;;;;12.43;11.43;;;;;;;18.88;90.92;96783.19;4996268;28;20276;-66
2021/06/10 05:26:09;;;;;;;12.67;11.63;;;;;;;19.08;90.21;96791.13;4991147;28;20186;-67
2021/06/10 05:28:34;;;;;;;12.73;11.67;;;;;;;19.03;89.96;96791.13;4977107;28;20201;-66
2021/06/10 05:31:08;;;;;;;12.23;11.03;;;;;;;19.05;89.58;96783.69;4977072;28;20174;-66
2021/06/10 05:33:37;;;;;;;11.00;10.20;;;;;;;19.18;89.39;96788.47;4976537;28;20194;-69
2021/06/10 05:36:04;;;;;;;11.80;10.87;;;;;;;19.25;89.22;96783.66;4977425;28;20477;-66
2021/06/10 05:38:29;;;;;;;11.37;10.53;;;;;;;19.40;88.19;96789.00;4987906;28;20775;-69
2021/06/10 05:40:55;;;;;;;10.90;10.00;;;;;;;19.52;87.63;96786.81;4978104;28;20417;-67
2021/06/10 05:43:23;;;;;;;10.07;9.37;;;;;;;19.57;87.18;96786.78;4976262;28;20675;-66
2021/06/10 05:45:52;;;;;;;9.60;8.90;;;;;;;19.67;87.10;96792.09;4975802;28;20178;-69
2021/06/10 05:48:18;;;;;;;9.93;9.20;;;;;;;19.61;86.50;96793.19;4959433;28;20425;-69
2021/06/10 05:50:45;;;;;;;10.60;9.60;;;;;;;19.64;86.59;96794.53;4977310;28;20409;-69
2021/06/10 05:53:10;;;;;;;10.57;9.77;;;;;;;19.77;86.21;96788.59;4976303;28;20429;-67
2021/06/10 05:55:37;;;;;;;10.43;9.50;;;;;;;19.81;85.72;96795.78;4980651;28;20420;-66
2021/06/10 05:58:02;;;;;;;10.30;9.60;;;;;;;19.96;85.32;96789.59;4996254;28;20169;-69
2021/06/10 06:00:28;;;;;;;10.03;9.13;;;;;;;19.99;85.46;96792.50;4996303;28;20463;-67
2021/06/10 06:02:54;;;;;;;10.07;9.27;;;;;;;19.99;84.46;96799.69;4995712;28;20564;-70
2021/06/10 06:05:19;;;;;;;10.90;10.10;;;;;;;20.14;84.41;96799.63;4996089;28;20193;-67
2021/06/10 06:07:45;;;;;;;9.67;8.97;;;;;;;20.08;84.20;96795.38;4981148;28;20679;-67
2021/06/10 06:10:11;;;;;;;9.50;8.80;;;;;;;20.21;84.00;96795.63;4976866;28;20185;-67
2021/06/10 06:12:40;;;;;;;10.40;9.53;;;;;;;20.33;83.48;96798.75;4958840;28;20209;-69
2021/06/10 06:15:06;;;;;;;11.13;10.17;;;;;;;20.42;82.76;96802.44;4975176;28;21086;-70
2021/06/10 06:17:31;;;;;;;9.60;8.70;;;;;;;20.59;82.66;96807.38;4973042;28;20464;-67
2021/06/10 06:19:59;;;;;;;9.40;8.50;;;;;;;20.64;81.72;96802.00;4972972;28;20433;-70
2021/06/10 06:22:26;;;;;;;9.80;8.90;;;;;;;20.80;80.79;96802.72;4972535;28;20174;-69
2021/06/10 06:24:52;;;;;;;9.17;8.47;;;;;;;20.91;80.89;96806.88;4980778;28;20472;-70
2021/06/10 06:27:18;;;;;;;8.87;8.20;;;;;;;20.98;80.75;96808.16;4972352;28;20834;-67
2021/06/10 06:29:43;;;;;;;10.27;9.50;;;;;;;20.93;79.86;96807.38;4972914;28;20173;-71
2021/06/10 06:32:08;;;;;;;9.60;8.90;;;;;;;21.00;79.17;96807.88;4991944;28;20532;-70
2021/06/10 06:34:34;;;;;;;8.53;7.93;;;;;;;21.08;79.31;96808.09;4992187;28;20193;-71
2021/06/10 06:36:59;;;;;;;8.90;8.20;;;;;;;21.16;79.32;96804.03;4978804;28;20194;-71
2021/06/10 06:39:25;;;;;;;10.07;9.27;;;;;;;21.12;79.45;96806.47;4988022;28;20201;-70
2021/06/10 06:41:51;;;;;;;9.67;8.87;;;;;;;21.25;78.85;96805.78;4985984;28;20181;-67
2021/06/10 06:44:16;;;;;;;9.10;8.40;;;;;;;21.33;78.68;96807.88;4972474;28;20552;-70
2021/06/10 06:46:41;;;;;;;10.13;9.33;;;;;;;21.35;77.43;96810.25;4974348;28;20169;-70
2021/06/10 06:49:07;;;;;;;11.33;10.50;;;;;;;21.27;75.47;96813.56;4974691;28;20174;-70
2021/06/10 06:51:33;;;;;;;9.80;9.07;;;;;;;21.35;76.24;96808.38;4974604;28;20189;-71
2021/06/10 06:53:58;;;;;;;10.13;9.43;;;;;;;21.52;76.36;96815.16;4975786;28;20669;-70
2021/06/10 06:56:24;;;;;;;11.13;10.30;;;;;;;21.65;76.67;96812.59;4978877;28;20288;-70
2021/06/10 06:58:50;;;;;;;10.57;9.73;;;;;;;21.75;77.45;96814.38;4995123;28;20177;-70
2021/06/10 07:01:16;;;;;;;10.50;9.60;;;;;;;21.77;76.81;96818.38;4994564;28;20228;-67
2021/06/10 07:03:41;;;;;;;11.97;11.07;;;;;;;21.78;76.22;96819.94;4994471;28;20429;-67
2021/06/10 07:06:07;;;;;;;11.20;10.40;;;;;;;21.85;75.84;96828.47;4994841;28;20185;-67
2021/06/10 07:08:32;;;;;;;10.90;10.00;;;;;;;21.96;76.03;96829.94;4995086;28;20178;-70
2021/06/10 07:10:58;;;;;;;11.13;10.23;;;;;;;22.02;77.14;96828.81;4992508;28;20209;-67
2021/06/10 07:13:25;;;;;;;10.30;9.50;;;;;;;22.10;77.53;96822.03;4988001;28;20252;-67
2021/06/10 07:15:52;;;;;;;10.83;9.93;;;;;;;22.21;77.74;96826.94;4994719;28;20787;-76
2021/06/10 07:18:18;;;;;;;10.77;9.80;;;;;;;22.25;77.77;96836.00;4962266;28;20428;-67
2021/06/10 07:20:43;;;;;;;12.20;11.27;;;;;;;22.30;77.87;96827.13;4991194;28;20412;-73
2021/06/10 07:23:09;;;;;;;12.60;11.47;;;;;;;22.37;77.25;96825.66;4990844;28;20460;-72
2021/06/10 07:25:35;;;;;;;14.60;13.40;;;;;;;22.18;73.98;96834.75;4990235;28;20189;-68
2021/06/10 07:28:01;;;;;;;12.50;11.60;;;;;;;22.29;74.67;96836.22;4991135;28;20421;-72
2021/06/10 07:30:27;;;;;;;14.57;13.37;;;;;;;22.34;75.50;96834.28;4990692;28;20431;-75
2021/06/10 07:32:52;;;;;;;15.43;14.13;;;;;;;22.39;74.70;96828.06;4990722;28;20243;-68
2021/06/10 07:35:24;;;;;;;14.30;13.20;;;;;;;22.32;74.84;96833.75;4991057;28;20185;-68
2021/06/10 07:37:51;;;;;;;13.80;12.57;;;;;;;22.31;75.61;96828.69;4991039;28;20499;-70
2021/06/10 07:40:17;;;;;;;13.17;11.97;;;;;;;22.34;74.86;96838.81;4990547;28;20455;-75
2021/06/10 07:42:43;;;;;;;12.33;11.33;;;;;;;22.39;74.93;96844.91;4979678;28;20479;-75
2021/06/10 07:45:10;;;;;;;12.60;11.60;;;;;;;22.39;75.01;96841.47;4971445;28;20932;-68
2021/06/10 07:47:35;;;;;;;12.53;11.57;;;;;;;22.47;74.12;96840.78;4971462;28;20162;-74
2021/06/10 07:50:01;;;;;;;12.27;11.17;;;;;;;22.62;73.94;96847.84;4971246;28;20946;-73
2021/06/10 07:52:27;;;;;;;10.93;10.10;;;;;;;22.67;73.33;96845.91;4973021;28;20170;-70
2021/06/10 07:54:52;;;;;;;12.10;11.00;;;;;;;22.60;73.15;96840.13;4974388;28;20437;-67
2021/06/10 07:57:18;;;;;;;11.47;10.47;;;;;;;22.82;73.54;96839.53;4988333;28;20208;-66
2021/06/10 07:59:45;;;;;;;10.87;10.07;;;;;;;22.83;73.96;96836.53;4976726;28;20177;-66
2021/06/10 08:02:10;;;;;;;10.90;10.10;;;;;;;22.86;73.44;96837.84;4993822;28;20177;-70
2021/06/10 08:04:36;;;;;;;10.93;10.13;;;;;;;22.99;73.17;96837.13;4975930;28;20512;-67
2021/06/10 08:07:01;;;;;;;10.07;9.27;;;;;;;23.14;73.91;96839.53;4993225;28;20260;-70
2021/06/10 08:09:26;;;;;;;10.20;9.33;;;;;;;23.26;74.66;96827.25;4993962;28;20699;-67
2021/06/10 08:11:53;;;;;;;11.93;10.90;;;;;;;23.27;74.11;96838.78;4993163;28;20181;-71
2021/06/10 08:14:18;;;;;;;11.17;10.37;;;;;;;23.37;74.96;96838.66;4994055;28;20243;-70
2021/06/10 08:16:44;;;;;;;9.80;9.10;;;;;;;23.45;76.05;96833.41;4993876;28;20452;-70
2021/06/10 08:19:09;;;;;;;11.87;10.93;;;;;;;23.52;74.79;96821.50;4993880;28;20165;-70
2021/06/10 08:21:35;;;;;;;11.77;10.70;;;;;;;23.61;74.02;96833.13;4993522;28;20161;-68
2021/06/10 08:24:00;;;;;;;10.60;9.50;;;;;;;23.68;73.84;96834.31;4993879;28;20260;-66
2021/06/10 08:26:26;;;;;;;10.47;9.67;;;;;;;23.79;74.11;96829.56;4982385;28;20181;-70
2021/06/10 08:28:51;;;;;;;11.40;10.60;;;;;;;23.84;74.04;96824.09;4957089;28;20202;-70
2021/06/10 08:31:17;;;;;;;12.60;11.60;;;;;;;23.89;74.29;96830.16;4974428;28;20170;-66
2021/06/10 08:33:43;;;;;;;12.57;11.57;;;;;;;23.99;73.89;96829.16;4973842;28;20296;-70
2021/06/10 08:36:09;;;;;;;14.07;12.87;;;;;;;24.09;73.71;96827.09;4974599;28;20221;-67
2021/06/10 08:38:36;;;;;;;13.50;12.30;;;;;;;24.15;73.26;96831.25;4974357;28;20951;-67
2021/06/10 08:41:02;;;;;;;14.00;12.80;;;;;;;24.11;70.27;96821.44;4985577;28;20511;-70
2021/06/10 08:43:28;;;;;;;11.13;10.27;;;;;;;24.20;71.57;96822.31;4989062;28;20539;-72
2021/06/10 08:45:59;;;;;;;10.00;9.30;;;;;;;24.31;72.29;96827.16;4992089;28;20543;-67
2021/06/10 08:48:29;;;;;;;11.70;10.80;;;;;;;24.42;72.04;96820.47;4982127;28;20260;-69
2021/06/10 08:50:54;;;;;;;12.03;11.10;;;;;;;24.52;72.72;96830.22;4981905;28;20472;-69
2021/06/10 08:53:20;;;;;;;13.37;12.30;;;;;;;24.59;69.85;96829.78;4993016;28;20525;-67
2021/06/10 08:55:45;;;;;;;11.97;11.00;;;;;;;24.66;69.47;96827.50;4993461;28;20200;-66
2021/06/10 08:58:11;;;;;;;11.37;10.37;;;;;;;24.82;69.81;96821.47;4993745;28;20173;-67
2021/06/10 09:00:36;;;;;;;11.00;10.20;;;;;;;24.97;70.71;96820.31;4993646;28;20173;-70
2021/06/10 09:03:02;;;;;;;12.73;11.67;;;;;;;25.01;69.22;96818.63;4975725;28;20204;-69
2021/06/10 09:05:29;;;;;;;12.60;11.60;;;;;;;25.06;67.80;96813.91;4975920;28;20189;-69
2021/06/10 09:08:04;;;;;;;10.73;10.03;;;;;;;25.23;68.85;96815.91;4975554;28;20425;-70
2021/06/10 09:10:32;;;;;;;12.27;11.37;;;;;;;25.29;67.20;96822.78;4956705;28;20421;-67
2021/06/10 09:13:00;;;;;;;11.03;10.23;;;;;;;25.35;66.20;96825.00;4982582;28;20448;-69
2021/06/10 09:15:29;;;;;;;12.07;10.87;;;;;;;25.45;67.95;96827.47;4993361;28;20416;-67
2021/06/10 09:17:55;;;;;;;11.47;10.67;;;;;;;25.49;67.01;96824.16;4993780;28;20504;-70
2021/06/10 09:20:21;;;;;;;11.33;10.53;;;;;;;25.68;68.00;96817.44;4995413;28;20412;-67
2021/06/10 09:22:48;;;;;;;12.80;11.80;;;;;;;25.86;68.09;96821.78;4996549;28;20745;-70
2021/06/10 09:25:19;;;;;;;14.10;12.87;;;;;;;26.04;64.57;96820.78;4997051;28;20174;-67
2021/06/10 09:27:56;;;;;;;11.77;10.87;;;;;;;26.17;66.84;96822.56;4992136;28;20424;-67
2021/06/10 09:30:43;;;;;;;14.53;13.30;;;;;;;26.04;62.89;96822.66;4977717;28;20959;-70
2021/06/10 09:33:11;;;;;;;12.60;11.70;;;;;;;26.04;62.51;96825.38;4976787;28;20425;-70
2021/06/10 09:35:40;;;;;;;13.70;12.57;;;;;;;26.04;64.39;96819.97;4976976;28;20406;-67
2021/06/10 09:38:14;;;;;;;13.27;12.27;;;;;;;26.10;65.07;96824.94;4977058;28;20416;-68
2021/06/10 09:40:40;;;;;;;12.90;11.90;;;;;;;26.12;66.06;96822.72;4977030;28;20902;-70
2021/06/10 09:43:06;;;;;;;14.00;12.70;;;;;;;25.92;64.30;96823.25;4978651;28;20448;-70
2021/06/10 09:45:33;;;;;;;12.60;11.57;;;;;;;25.89;64.40;96813.09;4986720;28;20220;-67
2021/06/10 09:48:01;;;;;;;12.50;11.50;;;;;;;25.78;64.35;96811.78;4978977;28;20969;-67
2021/06/10 09:50:43;;;;;;;12.67;11.57;;;;;;;25.56;64.23;96811.06;4996612;28;20899;-70
2021/06/10 09:53:12;;;;;;;13.60;12.40;;;;;;;25.53;64.92;96819.75;4995991;28;20420;-70
2021/06/10 09:55:55;;;;;;;14.90;13.80;;;;;;;25.26;66.44;96817.97;4996226;28;20462;-69
2021/06/10 09:58:26;;;;;;;13.70;12.80;;;;;;;25.10;66.91;96817.56;4964845;28;20461;-67
2021/06/10 10:00:54;;;;;;;14.50;13.40;;;;;;;25.15;67.47;96825.53;4976878;28;20772;-67
2021/06/10 10:03:22;;;;;;;15.13;13.90;;;;;;;25.08;67.13;96813.59;4976092;28;20521;-69
2021/06/10 10:05:48;;;;;;;14.73;13.53;;;;;;;24.99;67.75;96812.75;4976542;28;20426;-70
2021/06/10 10:08:15;;;;;;;14.17;13.17;;;;;;;24.89;67.41;96813.00;4976576;28;20409;-70
2021/06/10 10:10:40;;;;;;;15.20;14.00;;;;;;;24.87;68.18;96816.00;4990162;28;20438;-69
2021/06/10 10:13:09;;;;;;;15.83;14.50;;;;;;;24.68;69.19;96814.53;4991818;28;20448;-65
2021/06/10 10:15:35;;;;;;;15.30;14.20;;;;;;;24.74;68.89;96810.66;4993607;28;20189;-68
2021/06/10 10:18:01;;;;;;;15.90;14.57;;;;;;;24.74;67.69;96814.16;4992394;28;20563;-66
2021/06/10 10:20:27;;;;;;;17.37;15.97;;;;;;;24.61;67.66;96811.47;4992388;28;20492;-69
2021/06/10 10:22:53;;;;;;;18.20;16.80;;;;;;;24.71;67.73;96812.09;4991116;28;20712;-70
2021/06/10 10:25:19;;;;;;;16.60;15.20;;;;;;;24.76;66.86;96805.78;4980327;28;20193;-66
2021/06/10 10:27:45;;;;;;;17.00;15.80;;;;;;;24.81;66.96;96813.72;4976904;28;20432;-67
2021/06/10 10:30:11;;;;;;;17.60;16.40;;;;;;;24.85;65.18;96810.13;4991866;28;20769;-66
2021/06/10 10:32:41;;;;;;;17.23;15.90;;;;;;;24.95;65.51;96809.06;4990594;28;20799;-69
2021/06/10 10:35:15;;;;;;;15.73;14.63;;;;;;;25.09;65.51;96807.91;4992178;28;20491;-66
2021/06/10 10:37:41;;;;;;;14.83;13.63;;;;;;;25.24;65.28;96796.75;4990776;28;20494;-70
2021/06/10 10:40:15;;;;;;;15.07;14.07;;;;;;;25.44;66.42;96801.66;4991540;28;20444;-71
2021/06/10 10:42:41;;;;;;;15.23;14.13;;;;;;;25.62;67.46;96807.13;4991519;28;20195;-71
2021/06/10 10:45:11;;;;;;;16.80;15.70;;;;;;;25.72;62.81;96796.06;4991906;28;20417;-71
2021/06/10 10:47:44;;;;;;;15.33;14.23;;;;;;;25.68;62.07;96793.22;4991926;28;20407;-71
2021/06/10 10:50:17;;;;;;;14.07;12.97;;;;;;;25.75;62.33;96790.06;4991807;28;20412;-70
2021/06/10 10:52:53;;;;;;;19.00;17.60;;;;;;;25.92;62.03;96782.84;4981919;28;20886;-70
2021/06/10 10:55:27;;;;;;;15.73;14.70;;;;;;;26.14;63.31;96780.06;4988378;28;20546;-71
2021/06/10 10:58:15;;;;;;;17.10;15.77;;;;;;;26.43;64.03;96779.47;4991667;28;20539;-69
2021/06/10 11:00:49;;;;;;;18.30;16.90;;;;;;;26.63;62.07;96780.75;4991332;28;20833;-71
2021/06/10 11:03:22;;;;;;;17.60;16.20;;;;;;;26.80;60.17;96778.06;4994513;28;20424;-71
2021/06/10 11:05:48;;;;;;;18.17;16.87;;;;;;;26.83;56.36;96777.44;4977209;28;20455;-71
2021/06/10 11:08:13;;;;;;;22.53;17.57;;;;;;;26.81;59.19;96775.06;4994049;28;20879;-71
2021/06/10 11:10:51;;;;;;;17.53;16.23;;;;;;;26.96;57.10;96771.09;4975638;28;20246;-71
2021/06/10 11:13:17;;;;;;;16.30;15.10;;;;;;;27.22;58.00;96769.09;4991869;28;20332;-71
2021/06/10 11:15:42;;;;;;;16.30;15.20;;;;;;;27.39;54.58;96763.69;4994646;28;20409;-71
2021/06/10 11:18:08;;;;;;;16.70;15.50;;;;;;;27.50;54.79;96751.44;4994758;28;20472;-71
2021/06/10 11:20:36;;;;;;;15.70;14.60;;;;;;;27.55;53.75;96753.94;4994689;28;20655;-72